createdAt,value
2022-12-08T00:01:16.679Z,5.07
2022-12-08T00:03:44.242Z,3.65
2022-12-08T00:06:38.928Z,6.88
2022-12-08T00:09:24.360Z,3.27
2022-12-08T00:11:55.793Z,2.28
2022-12-08T00:14:25.394Z,6.82
2022-12-08T00:16:52.519Z,7.00
2022-12-08T00:19:19.683Z,4.55
2022-12-08T00:21:46.636Z,4.07
2022-12-08T00:24:13.718Z,9.35
2022-12-08T00:26:40.694Z,6.40
2022-12-08T00:29:08.702Z,2.72
2022-12-08T00:31:38.058Z,6.13
2022-12-08T00:34:05.087Z,3.92
2022-12-08T00:36:32.425Z,5.60
2022-12-08T00:39:00.081Z,6.20
2022-12-08T00:41:47.294Z,4.13
2022-12-08T00:44:17.161Z,10.27
2022-12-08T00:46:44.124Z,6.28
2022-12-08T00:49:12.010Z,4.07
2022-12-08T00:51:38.884Z,6.97
2022-12-08T00:54:06.784Z,4.28
2022-12-08T00:56:34.889Z,5.47
2022-12-08T00:59:03.344Z,6.55
2022-12-08T01:01:30.777Z,5.18
2022-12-08T01:03:57.859Z,3.90
2022-12-08T01:06:24.724Z,7.03
2022-12-08T01:08:51.743Z,6.75
2022-12-08T01:11:19.743Z,1.67
2022-12-08T01:13:47.192Z,6.05
2022-12-08T01:16:26.096Z,4.93
2022-12-08T01:18:54.059Z,6.70
2022-12-08T01:21:22.059Z,5.28
2022-12-08T01:23:49.089Z,2.38
2022-12-08T01:26:17.897Z,7.25
2022-12-08T01:28:45.882Z,2.90
2022-12-08T01:31:16.939Z,11.25
2022-12-08T01:33:44.701Z,10.23
2022-12-08T01:36:25.055Z,9.15
2022-12-08T01:38:53.248Z,6.57
2022-12-08T01:41:22.608Z,17.00
2022-12-08T01:43:49.435Z,14.52
2022-12-08T01:46:16.482Z,6.47
2022-12-08T01:48:43.782Z,6.72
2022-12-08T01:51:10.803Z,8.18
2022-12-08T01:53:39.217Z,5.68
2022-12-08T01:56:09.292Z,4.15
2022-12-08T01:58:40.068Z,11.80
2022-12-08T02:01:08.512Z,13.27
2022-12-08T02:03:58.653Z,11.48
2022-12-08T02:06:28.898Z,8.73
2022-12-08T02:08:56.903Z,4.25
2022-12-08T02:11:23.799Z,5.93
2022-12-08T02:13:54.555Z,3.75
2022-12-08T02:16:21.547Z,6.75
2022-12-08T02:19:29.289Z,3.83
2022-12-08T02:22:15.724Z,2.17
2022-12-08T02:25:08.157Z,5.75
2022-12-08T02:28:04.763Z,3.70
2022-12-08T02:31:05.373Z,7.13
2022-12-08T02:33:44.071Z,3.10
2022-12-08T02:36:22.828Z,5.45
2022-12-08T02:39:21.980Z,12.20
2022-12-08T02:42:12.445Z,9.68
2022-12-08T02:44:46.162Z,8.80
2022-12-08T02:47:18.023Z,8.85
2022-12-08T02:49:45.156Z,2.15
2022-12-08T02:52:12.007Z,10.95
2022-12-08T02:54:44.415Z,36.53
2022-12-08T02:57:28.288Z,9.77
2022-12-08T03:00:11.734Z,16.77
2022-12-08T03:02:44.505Z,16.75
2022-12-08T03:05:11.512Z,8.75
2022-12-08T03:07:50.172Z,20.13
2022-12-08T03:10:22.077Z,14.57
2022-12-08T03:12:54.349Z,26.65
2022-12-08T03:15:22.782Z,17.38
2022-12-08T03:17:55.456Z,7.65
2022-12-08T03:20:25.315Z,10.32
2022-12-08T03:22:55.909Z,13.05
2022-12-08T03:25:24.872Z,10.38
2022-12-08T03:27:53.527Z,23.52
2022-12-08T03:30:20.409Z,14.00
2022-12-08T03:33:04.297Z,10.27
2022-12-08T03:35:34.643Z,15.60
2022-12-08T03:38:07.706Z,7.05
2022-12-08T03:40:35.440Z,8.10
2022-12-08T03:43:02.610Z,6.55
2022-12-08T03:45:29.927Z,7.22
2022-12-08T03:47:57.196Z,8.20
2022-12-08T03:50:24.856Z,4.85
2022-12-08T03:52:51.845Z,6.13
2022-12-08T03:55:18.768Z,14.60
2022-12-08T03:57:46.101Z,5.63
2022-12-08T04:00:15.841Z,7.97
2022-12-08T04:02:43.314Z,3.40
2022-12-08T04:05:10.827Z,7.45
2022-12-08T04:07:37.905Z,7.18
2022-12-08T04:10:05.792Z,10.48
2022-12-08T04:12:33.052Z,10.32
2022-12-08T04:15:00.111Z,5.20
2022-12-08T04:17:27.354Z,27.48
2022-12-08T04:19:54.253Z,39.38
2022-12-08T04:22:21.252Z,18.02
2022-12-08T04:24:48.491Z,12.65
2022-12-08T04:27:15.456Z,20.48
2022-12-08T04:29:42.413Z,19.38
2022-12-08T04:32:09.349Z,8.00
2022-12-08T04:34:36.404Z,13.68
2022-12-08T04:37:03.389Z,4.18
2022-12-08T04:39:30.291Z,13.93
2022-12-08T04:41:57.254Z,6.13
2022-12-08T04:44:24.230Z,6.97
2022-12-08T04:46:51.264Z,7.57
2022-12-08T04:49:18.298Z,7.28
2022-12-08T04:51:45.253Z,7.07
2022-12-08T04:54:12.209Z,7.22
2022-12-08T04:56:39.360Z,13.18
2022-12-08T04:59:06.349Z,6.50
2022-12-08T05:01:33.538Z,7.45
2022-12-08T05:04:00.627Z,7.80
2022-12-08T05:06:27.600Z,7.85
2022-12-08T05:08:55.097Z,2.53
2022-12-08T05:11:21.986Z,7.22
2022-12-08T05:13:48.845Z,13.63
2022-12-08T05:16:16.531Z,22.50
2022-12-08T05:18:43.864Z,14.10
2022-12-08T05:21:11.463Z,13.55
2022-12-08T05:23:38.735Z,6.50
2022-12-08T05:26:05.896Z,48.42
2022-12-08T05:28:41.306Z,31.55
2022-12-08T05:31:09.139Z,14.48
2022-12-08T05:33:36.056Z,13.27
2022-12-08T05:36:02.966Z,16.50
2022-12-08T05:38:29.974Z,21.65
2022-12-08T05:40:57.369Z,12.20
2022-12-08T05:43:24.306Z,9.77
2022-12-08T05:45:51.219Z,13.77
2022-12-08T05:48:18.289Z,15.07
2022-12-08T05:50:48.633Z,24.65
2022-12-08T05:53:16.653Z,20.15
2022-12-08T05:55:43.761Z,29.23
2022-12-08T05:58:14.681Z,9.70
2022-12-08T06:00:42.205Z,31.13
2022-12-08T06:03:11.638Z,36.40
2022-12-08T06:05:38.552Z,30.92
2022-12-08T06:08:05.648Z,17.27
2022-12-08T06:10:32.649Z,54.60
2022-12-08T06:12:59.606Z,75.40
2022-12-08T06:15:26.955Z,21.38
2022-12-08T06:17:53.810Z,16.52
2022-12-08T06:20:20.808Z,10.25
2022-12-08T06:22:47.754Z,20.15
2022-12-08T06:25:14.609Z,69.18
2022-12-08T06:27:41.563Z,19.50
2022-12-08T06:30:08.963Z,16.20
2022-12-08T06:32:37.610Z,8.77
2022-12-08T06:35:04.963Z,10.13
2022-12-08T06:37:32.394Z,8.40
2022-12-08T06:39:59.476Z,9.05
2022-12-08T06:42:45.017Z,25.92
2022-12-08T06:45:16.676Z,29.25
2022-12-08T06:47:44.249Z,7.53
2022-12-08T06:50:11.803Z,10.25
2022-12-08T06:52:47.210Z,14.43
2022-12-08T06:55:35.343Z,16.50
2022-12-08T06:58:01.484Z,30.48
2022-12-08T07:00:28.352Z,16.42
2022-12-08T07:02:55.349Z,21.17
2022-12-08T07:05:22.343Z,15.68
2022-12-08T07:07:49.327Z,16.33
2022-12-08T07:10:16.414Z,12.77
2022-12-08T07:12:43.304Z,18.65
2022-12-08T07:15:10.812Z,12.02
2022-12-08T07:17:37.711Z,28.73
2022-12-08T07:20:05.481Z,4.32
2022-12-08T07:22:32.795Z,11.70
2022-12-08T07:24:59.740Z,13.48
2022-12-08T07:27:26.756Z,7.28
2022-12-08T07:29:53.752Z,17.60
2022-12-08T07:32:20.646Z,37.85
2022-12-08T07:34:47.610Z,19.80
2022-12-08T07:37:14.701Z,17.73
2022-12-08T07:39:41.686Z,7.20
2022-12-08T07:42:08.681Z,17.52
2022-12-08T07:44:37.398Z,33.88
2022-12-08T07:47:04.409Z,5.65
2022-12-08T07:49:31.333Z,17.85
2022-12-08T07:51:58.207Z,11.30
2022-12-08T07:54:25.116Z,7.40
2022-12-08T07:56:52.083Z,8.82
2022-12-08T07:59:19.787Z,11.32
2022-12-08T08:01:56.233Z,4.30
2022-12-08T08:04:34.918Z,7.45
2022-12-08T08:07:01.880Z,5.05
2022-12-08T08:09:28.791Z,12.48
2022-12-08T08:12:22.396Z,16.13
2022-12-08T08:14:42.600Z,5.88
2022-12-08T08:17:09.696Z,5.72
2022-12-08T08:19:36.697Z,4.55
2022-12-08T08:22:03.667Z,3.90
2022-12-08T08:24:30.597Z,5.18
2022-12-08T08:26:57.674Z,7.13
2022-12-08T08:29:24.756Z,7.80
2022-12-08T08:31:51.681Z,6.78
2022-12-08T08:34:18.648Z,6.10
2022-12-08T08:36:45.639Z,9.35
2022-12-08T08:39:13.481Z,12.77
2022-12-08T08:41:40.536Z,19.80
2022-12-08T08:44:07.613Z,6.78
2022-12-08T08:46:34.729Z,13.55
2022-12-08T08:49:01.702Z,8.30
2022-12-08T08:51:28.775Z,5.00
2022-12-08T08:53:55.765Z,5.50
2022-12-08T08:56:23.013Z,22.30
2022-12-08T08:58:51.202Z,13.93
2022-12-08T09:01:21.304Z,15.73
2022-12-08T09:03:49.191Z,5.93
2022-12-08T09:06:16.669Z,26.20
2022-12-08T09:08:45.053Z,9.95
2022-12-08T09:11:12.267Z,10.13
2022-12-08T09:13:39.526Z,16.42
2022-12-08T09:16:08.414Z,5.68
2022-12-08T09:18:35.656Z,14.40
2022-12-08T09:21:13.295Z,9.80
2022-12-08T09:23:40.334Z,19.20
2022-12-08T09:26:07.541Z,44.67
2022-12-08T09:28:34.886Z,25.35
2022-12-08T09:31:02.200Z,37.40
2022-12-08T09:33:29.442Z,16.98
2022-12-08T09:35:56.759Z,19.80
2022-12-08T09:38:23.792Z,34.90
2022-12-08T09:40:53.232Z,17.15
2022-12-08T09:43:38.313Z,17.05
2022-12-08T09:46:07.958Z,18.65
2022-12-08T09:48:57.256Z,23.98
2022-12-08T09:51:25.902Z,16.98
2022-12-08T09:54:01.580Z,10.40
2022-12-08T09:56:33.071Z,14.82
2022-12-08T09:59:05.709Z,17.10
2022-12-08T10:01:38.499Z,12.07
2022-12-08T10:04:33.844Z,17.20
2022-12-08T10:07:04.932Z,11.93
2022-12-08T10:09:34.862Z,27.80
2022-12-08T10:12:17.950Z,26.55
2022-12-08T10:14:53.394Z,21.52
2022-12-08T10:17:25.071Z,28.10
2022-12-08T10:20:00.303Z,32.35
2022-12-08T10:22:34.084Z,16.55
2022-12-08T10:25:34.389Z,19.60
2022-12-08T10:28:01.497Z,28.60
2022-12-08T10:30:28.383Z,27.42
2022-12-08T10:32:55.540Z,19.60
2022-12-08T10:35:23.824Z,17.80
2022-12-08T10:37:58.989Z,24.50
2022-12-08T10:40:39.094Z,25.30
2022-12-08T10:43:24.848Z,22.98
2022-12-08T10:45:51.960Z,21.52
2022-12-08T10:48:22.777Z,16.42
2022-12-08T10:50:52.865Z,14.90
2022-12-08T10:53:31.891Z,22.83
2022-12-08T10:56:01.944Z,16.15
2022-12-08T10:58:43.467Z,11.95
2022-12-08T11:01:26.747Z,13.70
2022-12-08T11:04:05.727Z,31.45
2022-12-08T11:06:37.782Z,23.02
2022-12-08T11:09:22.305Z,19.98
2022-12-08T11:11:59.606Z,12.35
2022-12-08T11:14:32.545Z,30.17
2022-12-08T11:17:05.274Z,24.85
2022-12-08T11:19:38.261Z,22.88
2022-12-08T11:22:38.004Z,17.73
2022-12-08T11:25:08.000Z,27.50
2022-12-08T11:27:37.272Z,15.05
2022-12-08T11:30:15.101Z,12.68
2022-12-08T11:32:45.011Z,20.10
2022-12-08T11:35:27.257Z,22.70
2022-12-08T11:38:08.055Z,25.00
2022-12-08T11:40:44.894Z,15.23
2022-12-08T11:43:36.709Z,13.30
2022-12-08T11:46:15.734Z,25.13
2022-12-08T11:49:11.282Z,19.15
2022-12-08T11:54:26.879Z,28.05
2022-12-08T11:56:58.800Z,19.10
2022-12-08T11:59:34.862Z,23.40
2022-12-08T12:02:04.551Z,19.95
2022-12-08T12:04:39.871Z,8.95
2022-12-08T12:07:12.715Z,22.17
2022-12-08T12:09:59.838Z,23.85
2022-12-08T12:12:43.091Z,9.35
2022-12-08T12:15:30.729Z,14.32
2022-12-08T12:18:02.401Z,12.90
2022-12-08T12:20:33.713Z,11.40
2022-12-08T12:23:07.497Z,11.90
2022-12-08T12:25:37.053Z,19.05
2022-12-08T12:28:09.225Z,13.05
2022-12-08T12:30:59.242Z,26.73
2022-12-08T12:33:27.372Z,10.23
2022-12-08T12:35:58.114Z,9.07
2022-12-08T12:38:54.167Z,18.50
2022-12-08T12:41:52.715Z,16.55
2022-12-08T12:44:19.580Z,18.25
2022-12-08T12:46:46.513Z,8.20
2022-12-08T12:49:38.181Z,14.68
2022-12-08T12:52:18.226Z,9.65
2022-12-08T12:55:10.835Z,14.45
2022-12-08T12:57:37.807Z,14.98
2022-12-08T13:00:04.710Z,12.48
2022-12-08T13:02:45.438Z,16.70
2022-12-08T13:05:18.638Z,13.68
2022-12-08T13:07:52.539Z,18.05
2022-12-08T13:10:24.073Z,10.97
2022-12-08T13:13:05.608Z,22.95
2022-12-08T13:15:41.488Z,21.50
2022-12-08T13:18:23.995Z,11.93
2022-12-08T13:20:55.182Z,15.50
2022-12-08T13:23:42.791Z,19.73
2022-12-08T13:26:17.367Z,11.73
2022-12-08T13:29:00.085Z,14.10
2022-12-08T13:31:37.520Z,13.50
2022-12-08T13:34:07.085Z,17.92
2022-12-08T13:36:39.045Z,21.02
2022-12-08T13:39:07.225Z,12.18
2022-12-08T13:41:44.812Z,16.65
2022-12-08T13:47:33.499Z,30.58
2022-12-08T13:53:49.676Z,17.85
2022-12-08T13:56:59.458Z,17.63
2022-12-08T13:58:47.742Z,17.08
2022-12-08T14:01:22.420Z,22.17
2022-12-08T14:04:12.897Z,19.48
2022-12-08T14:06:38.921Z,22.63
2022-12-08T14:09:11.062Z,14.70
2022-12-08T14:11:45.239Z,12.90
2022-12-08T14:14:46.046Z,18.03
2022-12-08T14:17:15.445Z,22.92
2022-12-08T14:19:55.801Z,15.43
2022-12-08T14:22:23.899Z,18.42
2022-12-08T14:24:54.917Z,20.08
2022-12-08T14:27:24.188Z,16.90
2022-12-08T14:30:00.284Z,8.70
2022-12-08T14:32:34.347Z,20.20
2022-12-08T14:35:07.761Z,23.05
2022-12-08T14:37:38.620Z,27.73
2022-12-08T14:40:10.637Z,32.17
2022-12-08T14:42:46.644Z,16.50
2022-12-08T14:45:16.249Z,33.53
2022-12-08T14:47:43.913Z,31.45
2022-12-08T14:50:35.716Z,27.83
2022-12-08T14:53:03.502Z,24.33
2022-12-08T14:55:37.801Z,17.58
2022-12-08T14:58:05.257Z,21.55
2022-12-08T15:00:33.494Z,16.02
2022-12-08T15:03:07.926Z,33.42
2022-12-08T15:05:35.194Z,52.85
2022-12-08T15:08:04.070Z,27.10
2022-12-08T15:10:35.606Z,26.10
2022-12-08T15:13:05.578Z,21.67
2022-12-08T15:15:46.129Z,17.88
2022-12-08T15:18:38.029Z,36.13
2022-12-08T15:21:09.224Z,31.83
2022-12-08T15:23:50.150Z,27.90
2022-12-08T15:26:28.223Z,29.42
2022-12-08T15:28:55.709Z,27.40
2022-12-08T15:31:22.830Z,42.85
2022-12-08T15:33:49.900Z,36.33
2022-12-08T15:36:16.896Z,41.95
2022-12-08T15:38:43.854Z,34.63
2022-12-08T15:41:14.947Z,27.88
2022-12-08T15:43:42.685Z,41.10
2022-12-08T15:46:09.726Z,41.42
2022-12-08T15:48:37.901Z,21.45
2022-12-08T15:51:04.871Z,30.88
2022-12-08T15:53:31.822Z,24.35
2022-12-08T15:58:56.190Z,23.70
2022-12-08T16:01:24.672Z,27.23
2022-12-08T16:09:36.263Z,26.48
2022-12-08T16:12:22.254Z,30.23
2022-12-08T16:17:37.752Z,30.17
2022-12-08T16:20:17.006Z,29.33
2022-12-08T16:22:59.280Z,26.17
2022-12-08T16:25:46.068Z,17.77
2022-12-08T16:28:52.189Z,24.27
2022-12-08T16:31:08.840Z,21.85
2022-12-08T16:33:38.724Z,27.13
2022-12-08T16:36:05.829Z,22.52
2022-12-08T16:38:33.043Z,16.17
2022-12-08T16:41:18.836Z,19.48
2022-12-08T16:43:45.739Z,27.17
2022-12-08T16:46:23.258Z,38.38
2022-12-08T16:48:50.314Z,18.60
2022-12-08T16:51:23.431Z,20.70
2022-12-08T16:53:53.679Z,26.50
2022-12-08T16:56:24.140Z,22.35
2022-12-08T16:58:55.894Z,16.50
2022-12-08T17:01:23.925Z,31.52
2022-12-08T17:04:14.392Z,38.17
2022-12-08T17:06:37.965Z,39.60
2022-12-08T17:09:04.978Z,33.67
2022-12-08T17:11:36.236Z,16.88
2022-12-08T17:14:06.202Z,30.10
2022-12-08T17:16:33.194Z,18.63
2022-12-08T17:19:00.241Z,29.08
2022-12-08T17:21:27.204Z,15.10
2022-12-08T17:23:54.845Z,13.27
2022-12-08T17:26:21.821Z,26.10
2022-12-08T17:29:04.018Z,26.17
2022-12-08T17:31:32.621Z,35.88
2022-12-08T17:34:04.848Z,24.40
2022-12-08T17:36:32.223Z,13.60
2022-12-08T17:39:00.551Z,19.70
2022-12-08T17:41:28.213Z,12.48
2022-12-08T17:43:55.314Z,17.05
2022-12-08T17:46:23.357Z,7.90
2022-12-08T17:48:50.504Z,19.83
2022-12-08T17:51:17.871Z,13.77
2022-12-08T17:53:45.061Z,13.45
2022-12-08T17:56:20.726Z,19.20
2022-12-08T17:58:52.852Z,20.95
2022-12-08T18:01:23.347Z,12.57
2022-12-08T18:03:50.899Z,8.77
2022-12-08T18:06:17.930Z,15.98
2022-12-08T18:08:45.175Z,15.82
2022-12-08T18:11:18.737Z,7.78
2022-12-08T18:13:47.476Z,9.25
2022-12-08T18:16:15.654Z,7.07
2022-12-08T18:18:42.648Z,13.70
2022-12-08T18:21:10.084Z,9.85
2022-12-08T18:23:38.081Z,18.55
2022-12-08T18:26:09.909Z,21.67
2022-12-08T18:28:38.314Z,20.85
2022-12-08T18:31:14.797Z,26.67
2022-12-08T18:33:43.582Z,17.75
2022-12-08T18:36:14.149Z,15.75
2022-12-08T18:38:41.057Z,21.67
2022-12-08T18:41:09.914Z,20.55
2022-12-08T18:43:37.946Z,32.45
2022-12-08T18:46:09.565Z,11.10
2022-12-08T18:48:38.852Z,18.20
2022-12-08T18:51:13.239Z,27.65
2022-12-08T18:53:40.751Z,27.50
2022-12-08T18:56:08.852Z,26.75
2022-12-08T18:58:35.978Z,13.30
2022-12-08T19:01:03.057Z,30.20
2022-12-08T19:03:30.053Z,18.00
2022-12-08T19:06:07.427Z,11.88
2022-12-08T19:08:34.412Z,19.08
2022-12-08T19:11:01.716Z,21.23
2022-12-08T19:13:28.862Z,28.70
2022-12-08T19:15:56.000Z,28.88
2022-12-08T19:18:23.104Z,27.88
2022-12-08T19:20:50.231Z,23.02
2022-12-08T19:23:17.173Z,28.90
2022-12-08T19:25:44.154Z,38.20
2022-12-08T19:28:11.092Z,32.72
2022-12-08T19:30:38.162Z,25.17
2022-12-08T19:33:05.171Z,29.65
2022-12-08T19:35:32.149Z,24.38
2022-12-08T19:37:59.092Z,41.05
2022-12-08T19:40:44.581Z,29.33
2022-12-08T19:43:37.464Z,11.43
2022-12-08T19:46:04.639Z,33.88
2022-12-08T19:48:31.711Z,28.33
2022-12-08T19:50:59.072Z,39.88
2022-12-08T19:53:26.333Z,25.73
2022-12-08T19:55:53.388Z,32.03
2022-12-08T19:58:20.549Z,29.63
2022-12-08T20:00:48.085Z,27.60
2022-12-08T20:03:20.464Z,32.75
2022-12-08T20:05:49.761Z,29.48
2022-12-08T20:08:17.219Z,44.65
2022-12-08T20:10:45.240Z,24.08
2022-12-08T20:13:31.537Z,29.35
2022-12-08T20:15:58.800Z,34.88
2022-12-08T20:18:25.918Z,25.92
2022-12-08T20:20:53.096Z,29.48
2022-12-08T20:23:20.014Z,25.20
2022-12-08T20:25:48.001Z,33.05
2022-12-08T20:28:15.133Z,30.23
2022-12-08T20:30:42.965Z,40.85
2022-12-08T20:33:13.765Z,40.90
2022-12-08T20:35:41.599Z,28.63
2022-12-08T20:38:08.754Z,32.67
2022-12-08T20:40:35.836Z,28.33
2022-12-08T20:43:02.953Z,32.30
2022-12-08T20:45:30.015Z,25.15
2022-12-08T20:47:56.966Z,26.30
2022-12-08T20:50:23.931Z,29.60
2022-12-08T20:52:50.957Z,32.40
2022-12-08T20:55:18.256Z,37.00
2022-12-08T20:57:45.257Z,41.00
2022-12-08T21:00:12.905Z,29.30
2022-12-08T21:02:46.925Z,50.47
2022-12-08T21:05:16.359Z,29.83
2022-12-08T21:07:43.640Z,40.55
2022-12-08T21:10:11.006Z,44.88
2022-12-08T21:12:38.298Z,19.77
2022-12-08T21:15:07.696Z,31.02
2022-12-08T21:17:34.918Z,32.75
2022-12-08T21:20:02.458Z,25.52
2022-12-08T21:22:29.471Z,36.65
2022-12-08T21:24:56.624Z,42.60
2022-12-08T21:27:23.700Z,22.35
2022-12-08T21:29:50.590Z,36.08
2022-12-08T21:32:17.661Z,27.98
2022-12-08T21:34:45.595Z,39.38
2022-12-08T21:37:12.687Z,36.40
2022-12-08T21:39:39.747Z,36.63
2022-12-08T21:42:30.791Z,31.63
2022-12-08T21:45:01.319Z,31.40
2022-12-08T21:47:28.520Z,45.00
2022-12-08T21:49:55.711Z,41.83
2022-12-08T21:52:23.031Z,40.45
2022-12-08T21:54:50.030Z,46.25
2022-12-08T21:57:17.044Z,33.15
2022-12-08T21:59:44.102Z,35.35
2022-12-08T22:02:19.558Z,34.58
2022-12-08T22:04:50.261Z,33.25
2022-12-08T22:07:17.743Z,32.50
2022-12-08T22:09:44.799Z,52.17
2022-12-08T22:12:12.342Z,51.30
2022-12-08T22:14:40.813Z,42.75
2022-12-08T22:17:08.057Z,48.78
2022-12-08T22:19:35.482Z,41.78
2022-12-08T22:22:03.195Z,38.60
2022-12-08T22:24:31.283Z,24.00
2022-12-08T22:26:58.323Z,49.17
2022-12-08T22:29:25.335Z,39.50
2022-12-08T22:31:52.333Z,42.70
2022-12-08T22:34:19.529Z,29.20
2022-12-08T22:36:46.513Z,41.78
2022-12-08T22:39:13.431Z,39.95
2022-12-08T22:41:40.613Z,46.75
2022-12-08T22:44:08.080Z,44.80
2022-12-08T22:46:35.190Z,39.83
2022-12-08T22:49:02.623Z,40.85
2022-12-08T22:51:29.699Z,72.18
2022-12-08T22:53:56.822Z,47.67
2022-12-08T22:56:23.788Z,30.70
2022-12-08T22:58:51.657Z,38.20
2022-12-08T23:01:31.245Z,35.33
2022-12-08T23:04:01.387Z,49.63
2022-12-08T23:06:30.316Z,39.72
2022-12-08T23:08:57.903Z,31.98
2022-12-08T23:11:28.048Z,38.38
2022-12-08T23:13:56.409Z,42.17
2022-12-08T23:16:23.535Z,35.28
2022-12-08T23:18:50.943Z,38.33
2022-12-08T23:21:19.576Z,36.58
2022-12-08T23:23:46.950Z,38.38
2022-12-08T23:26:27.971Z,24.33
2022-12-08T23:28:56.382Z,33.50
2022-12-08T23:31:24.205Z,24.90
2022-12-08T23:33:51.865Z,36.65
2022-12-08T23:36:21.124Z,24.45
2022-12-08T23:38:48.524Z,35.30
2022-12-08T23:41:16.558Z,27.20
2022-12-08T23:43:51.879Z,30.40
2022-12-08T23:46:21.751Z,43.25
2022-12-08T23:48:49.725Z,25.35
2022-12-08T23:51:17.167Z,42.55
2022-12-08T23:53:44.564Z,52.38
2022-12-08T23:56:15.561Z,41.50
2022-12-08T23:58:44.112Z,61.42
